sensor_id;sensor_type;location;lat;lon;timestamp;P1;durP1;ratioP1;P2;durP2;ratioP2
48935;SDS011;34745;52.276;10.528;2022-09-29T00:01:56;13.37;;;8.97;;
48935;SDS011;34745;52.276;10.528;2022-09-29T00:04:23;16.93;;;6.67;;
48935;SDS011;34745;52.276;10.528;2022-09-29T00:06:50;9.83;;;5.97;;
48935;SDS011;34745;52.276;10.528;2022-09-29T00:09:18;7.17;;;5.53;;
48935;SDS011;34745;52.276;10.528;2022-09-29T00:11:46;7.77;;;5.90;;
48935;SDS011;34745;52.276;10.528;2022-09-29T00:14:12;7.53;;;5.57;;
48935;SDS011;34745;52.276;10.528;2022-09-29T00:16:40;10.17;;;5.97;;
48935;SDS011;34745;52.276;10.528;2022-09-29T00:19:07;6.57;;;5.23;;
48935;SDS011;34745;52.276;10.528;2022-09-29T00:21:34;8.63;;;5.50;;
48935;SDS011;34745;52.276;10.528;2022-09-29T00:24:01;7.30;;;5.70;;
48935;SDS011;34745;52.276;10.528;2022-09-29T00:26:29;10.27;;;6.23;;
48935;SDS011;34745;52.276;10.528;2022-09-29T00:28:57;6.70;;;5.30;;
48935;SDS011;34745;52.276;10.528;2022-09-29T00:31:27;5.90;;;5.30;;
48935;SDS011;34745;52.276;10.528;2022-09-29T00:33:55;9.60;;;5.17;;
48935;SDS011;34745;52.276;10.528;2022-09-29T00:36:23;7.07;;;5.17;;
48935;SDS011;34745;52.276;10.528;2022-09-29T00:38:53;7.40;;;5.23;;
48935;SDS011;34745;52.276;10.528;2022-09-29T00:41:21;6.77;;;5.10;;
48935;SDS011;34745;52.276;10.528;2022-09-29T00:43:52;6.80;;;4.90;;
48935;SDS011;34745;52.276;10.528;2022-09-29T00:46:23;7.30;;;5.13;;
48935;SDS011;34745;52.276;10.528;2022-09-29T00:48:58;8.63;;;5.37;;
48935;SDS011;34745;52.276;10.528;2022-09-29T00:51:30;7.40;;;5.70;;
48935;SDS011;34745;52.276;10.528;2022-09-29T00:53:59;7.37;;;5.93;;
48935;SDS011;34745;52.276;10.528;2022-09-29T00:56:28;9.33;;;5.70;;
48935;SDS011;34745;52.276;10.528;2022-09-29T00:58:58;7.93;;;5.83;;
48935;SDS011;34745;52.276;10.528;2022-09-29T01:01:27;8.60;;;5.90;;
48935;SDS011;34745;52.276;10.528;2022-09-29T01:03:57;8.33;;;6.43;;
48935;SDS011;34745;52.276;10.528;2022-09-29T01:06:29;13.37;;;9.27;;
48935;SDS011;34745;52.276;10.528;2022-09-29T01:09:00;19.07;;;11.87;;
48935;SDS011;34745;52.276;10.528;2022-09-29T01:11:30;7.73;;;6.30;;
48935;SDS011;34745;52.276;10.528;2022-09-29T01:13:59;7.40;;;5.80;;
48935;SDS011;34745;52.276;10.528;2022-09-29T01:16:30;8.60;;;5.63;;
48935;SDS011;34745;52.276;10.528;2022-09-29T01:18:58;8.40;;;5.50;;
48935;SDS011;34745;52.276;10.528;2022-09-29T01:21:28;6.70;;;5.70;;
48935;SDS011;34745;52.276;10.528;2022-09-29T01:24:07;6.20;;;5.57;;
48935;SDS011;34745;52.276;10.528;2022-09-29T01:27:12;8.47;;;5.00;;
48935;SDS011;34745;52.276;10.528;2022-09-29T01:30:03;5.77;;;5.27;;
48935;SDS011;34745;52.276;10.528;2022-09-29T01:35:32;9.60;;;6.00;;
48935;SDS011;34745;52.276;10.528;2022-09-29T01:38:09;8.30;;;5.40;;
48935;SDS011;34745;52.276;10.528;2022-09-29T01:40:49;7.03;;;5.57;;
48935;SDS011;34745;52.276;10.528;2022-09-29T01:43:23;8.27;;;5.80;;
48935;SDS011;34745;52.276;10.528;2022-09-29T01:45:56;6.33;;;5.43;;
48935;SDS011;34745;52.276;10.528;2022-09-29T01:48:29;6.50;;;5.50;;
48935;SDS011;34745;52.276;10.528;2022-09-29T01:51:00;7.40;;;5.27;;
48935;SDS011;34745;52.276;10.528;2022-09-29T01:53:50;7.93;;;5.60;;
48935;SDS011;34745;52.276;10.528;2022-09-29T01:56:20;6.80;;;5.67;;
48935;SDS011;34745;52.276;10.528;2022-09-29T01:58:56;8.73;;;6.20;;
48935;SDS011;34745;52.276;10.528;2022-09-29T02:01:27;7.17;;;5.63;;
48935;SDS011;34745;52.276;10.528;2022-09-29T02:03:59;5.83;;;5.23;;
48935;SDS011;34745;52.276;10.528;2022-09-29T02:06:31;7.77;;;5.87;;
48935;SDS011;34745;52.276;10.528;2022-09-29T02:09:03;7.50;;;5.83;;
48935;SDS011;34745;52.276;10.528;2022-09-29T02:11:34;7.53;;;6.00;;
48935;SDS011;34745;52.276;10.528;2022-09-29T02:14:06;7.67;;;5.47;;
48935;SDS011;34745;52.276;10.528;2022-09-29T02:16:39;9.93;;;5.37;;
48935;SDS011;34745;52.276;10.528;2022-09-29T02:19:12;7.50;;;5.57;;
48935;SDS011;34745;52.276;10.528;2022-09-29T02:21:45;6.73;;;5.20;;
48935;SDS011;34745;52.276;10.528;2022-09-29T02:24:12;6.60;;;5.53;;
48935;SDS011;34745;52.276;10.528;2022-09-29T02:26:40;7.20;;;5.63;;
48935;SDS011;34745;52.276;10.528;2022-09-29T02:29:08;5.37;;;4.87;;
48935;SDS011;34745;52.276;10.528;2022-09-29T02:31:36;6.50;;;5.13;;
48935;SDS011;34745;52.276;10.528;2022-09-29T02:34:03;8.10;;;5.30;;
48935;SDS011;34745;52.276;10.528;2022-09-29T02:36:39;6.97;;;5.20;;
48935;SDS011;34745;52.276;10.528;2022-09-29T02:39:12;6.83;;;5.60;;
48935;SDS011;34745;52.276;10.528;2022-09-29T02:41:48;7.57;;;5.37;;
48935;SDS011;34745;52.276;10.528;2022-09-29T02:44:22;8.20;;;5.97;;
48935;SDS011;34745;52.276;10.528;2022-09-29T02:47:07;7.83;;;5.37;;
48935;SDS011;34745;52.276;10.528;2022-09-29T02:49:48;7.03;;;5.63;;
48935;SDS011;34745;52.276;10.528;2022-09-29T02:52:30;10.10;;;5.67;;
48935;SDS011;34745;52.276;10.528;2022-09-29T02:55:10;6.10;;;5.50;;
48935;SDS011;34745;52.276;10.528;2022-09-29T02:57:44;6.60;;;6.00;;
48935;SDS011;34745;52.276;10.528;2022-09-29T03:00:16;6.37;;;5.50;;
48935;SDS011;34745;52.276;10.528;2022-09-29T03:02:44;7.43;;;5.73;;
48935;SDS011;34745;52.276;10.528;2022-09-29T03:05:12;6.90;;;6.10;;
48935;SDS011;34745;52.276;10.528;2022-09-29T03:07:42;6.90;;;6.20;;
48935;SDS011;34745;52.276;10.528;2022-09-29T03:10:10;6.73;;;5.87;;
48935;SDS011;34745;52.276;10.528;2022-09-29T03:12:39;10.30;;;5.80;;
48935;SDS011;34745;52.276;10.528;2022-09-29T03:15:07;8.63;;;5.90;;
48935;SDS011;34745;52.276;10.528;2022-09-29T03:17:38;7.07;;;5.53;;
48935;SDS011;34745;52.276;10.528;2022-09-29T03:20:06;7.20;;;6.00;;
48935;SDS011;34745;52.276;10.528;2022-09-29T03:22:34;7.17;;;6.47;;
48935;SDS011;34745;52.276;10.528;2022-09-29T03:25:02;8.60;;;6.30;;
48935;SDS011;34745;52.276;10.528;2022-09-29T03:27:31;8.00;;;6.40;;
48935;SDS011;34745;52.276;10.528;2022-09-29T03:29:59;7.40;;;6.43;;
48935;SDS011;34745;52.276;10.528;2022-09-29T03:32:26;7.87;;;6.70;;
48935;SDS011;34745;52.276;10.528;2022-09-29T03:34:52;7.33;;;6.43;;
48935;SDS011;34745;52.276;10.528;2022-09-29T03:37:20;9.17;;;6.20;;
48935;SDS011;34745;52.276;10.528;2022-09-29T03:39:46;8.10;;;6.70;;
48935;SDS011;34745;52.276;10.528;2022-09-29T03:42:15;9.67;;;7.03;;
48935;SDS011;34745;52.276;10.528;2022-09-29T03:44:42;8.73;;;7.03;;
48935;SDS011;34745;52.276;10.528;2022-09-29T03:47:09;8.83;;;6.73;;
48935;SDS011;34745;52.276;10.528;2022-09-29T03:49:36;8.33;;;6.80;;
48935;SDS011;34745;52.276;10.528;2022-09-29T03:52:03;10.63;;;7.27;;
48935;SDS011;34745;52.276;10.528;2022-09-29T03:54:30;12.60;;;6.90;;
48935;SDS011;34745;52.276;10.528;2022-09-29T03:56:57;8.47;;;6.97;;
48935;SDS011;34745;52.276;10.528;2022-09-29T03:59:26;10.73;;;7.10;;
48935;SDS011;34745;52.276;10.528;2022-09-29T04:01:53;8.43;;;7.53;;
48935;SDS011;34745;52.276;10.528;2022-09-29T04:04:20;14.67;;;8.23;;
48935;SDS011;34745;52.276;10.528;2022-09-29T04:06:47;9.07;;;8.17;;
48935;SDS011;34745;52.276;10.528;2022-09-29T04:09:14;12.83;;;7.97;;
48935;SDS011;34745;52.276;10.528;2022-09-29T04:11:41;9.63;;;7.70;;
48935;SDS011;34745;52.276;10.528;2022-09-29T04:14:08;13.47;;;8.87;;
48935;SDS011;34745;52.276;10.528;2022-09-29T04:16:36;12.40;;;7.90;;
48935;SDS011;34745;52.276;10.528;2022-09-29T04:19:03;9.70;;;8.07;;
48935;SDS011;34745;52.276;10.528;2022-09-29T04:21:30;13.43;;;7.70;;
48935;SDS011;34745;52.276;10.528;2022-09-29T04:23:57;10.93;;;8.47;;
48935;SDS011;34745;52.276;10.528;2022-09-29T04:26:24;11.20;;;8.07;;
48935;SDS011;34745;52.276;10.528;2022-09-29T04:28:51;18.50;;;7.53;;
48935;SDS011;34745;52.276;10.528;2022-09-29T04:31:19;9.90;;;7.77;;
48935;SDS011;34745;52.276;10.528;2022-09-29T04:33:47;11.47;;;7.83;;
48935;SDS011;34745;52.276;10.528;2022-09-29T04:36:14;14.30;;;7.83;;
48935;SDS011;34745;52.276;10.528;2022-09-29T04:38:41;14.07;;;7.40;;
48935;SDS011;34745;52.276;10.528;2022-09-29T04:41:08;9.03;;;7.90;;
48935;SDS011;34745;52.276;10.528;2022-09-29T04:43:35;10.43;;;7.57;;
48935;SDS011;34745;52.276;10.528;2022-09-29T04:46:03;11.10;;;8.13;;
48935;SDS011;34745;52.276;10.528;2022-09-29T04:48:32;9.93;;;8.23;;
48935;SDS011;34745;52.276;10.528;2022-09-29T04:51:03;13.30;;;8.30;;
48935;SDS011;34745;52.276;10.528;2022-09-29T04:53:31;13.17;;;8.80;;
48935;SDS011;34745;52.276;10.528;2022-09-29T04:55:58;9.53;;;8.23;;
48935;SDS011;34745;52.276;10.528;2022-09-29T04:58:29;11.47;;;8.73;;
48935;SDS011;34745;52.276;10.528;2022-09-29T05:01:03;11.87;;;8.23;;
48935;SDS011;34745;52.276;10.528;2022-09-29T05:03:31;12.93;;;8.93;;
48935;SDS011;34745;52.276;10.528;2022-09-29T05:05:58;11.03;;;8.67;;
48935;SDS011;34745;52.276;10.528;2022-09-29T05:08:27;12.33;;;9.43;;
48935;SDS011;34745;52.276;10.528;2022-09-29T05:10:54;11.70;;;8.57;;
48935;SDS011;34745;52.276;10.528;2022-09-29T05:13:21;12.00;;;10.07;;
48935;SDS011;34745;52.276;10.528;2022-09-29T05:15:53;15.33;;;9.97;;
48935;SDS011;34745;52.276;10.528;2022-09-29T05:18:21;14.23;;;10.33;;
48935;SDS011;34745;52.276;10.528;2022-09-29T05:20:49;14.60;;;10.03;;
48935;SDS011;34745;52.276;10.528;2022-09-29T05:23:37;13.47;;;10.40;;
48935;SDS011;34745;52.276;10.528;2022-09-29T05:26:05;18.03;;;10.33;;
48935;SDS011;34745;52.276;10.528;2022-09-29T05:28:34;16.00;;;12.40;;
48935;SDS011;34745;52.276;10.528;2022-09-29T05:31:02;24.23;;;11.73;;
48935;SDS011;34745;52.276;10.528;2022-09-29T05:33:30;12.73;;;10.70;;
48935;SDS011;34745;52.276;10.528;2022-09-29T05:35:58;17.13;;;11.73;;
48935;SDS011;34745;52.276;10.528;2022-09-29T05:38:25;19.13;;;11.73;;
48935;SDS011;34745;52.276;10.528;2022-09-29T05:40:54;18.40;;;12.03;;
48935;SDS011;34745;52.276;10.528;2022-09-29T05:43:21;17.10;;;11.40;;
48935;SDS011;34745;52.276;10.528;2022-09-29T05:45:48;19.27;;;12.27;;
48935;SDS011;34745;52.276;10.528;2022-09-29T05:48:15;19.57;;;12.10;;
48935;SDS011;34745;52.276;10.528;2022-09-29T05:50:43;17.27;;;12.17;;
48935;SDS011;34745;52.276;10.528;2022-09-29T05:53:10;19.23;;;12.63;;
48935;SDS011;34745;52.276;10.528;2022-09-29T05:55:37;22.00;;;13.03;;
48935;SDS011;34745;52.276;10.528;2022-09-29T05:58:06;26.23;;;12.67;;
48935;SDS011;34745;52.276;10.528;2022-09-29T06:00:34;18.77;;;12.77;;
48935;SDS011;34745;52.276;10.528;2022-09-29T06:03:01;24.60;;;13.40;;
48935;SDS011;34745;52.276;10.528;2022-09-29T06:05:28;18.50;;;13.83;;
48935;SDS011;34745;52.276;10.528;2022-09-29T06:07:55;19.20;;;13.83;;
48935;SDS011;34745;52.276;10.528;2022-09-29T06:10:23;17.77;;;13.73;;
48935;SDS011;34745;52.276;10.528;2022-09-29T06:12:50;22.83;;;13.73;;
48935;SDS011;34745;52.276;10.528;2022-09-29T06:15:19;24.53;;;14.27;;
48935;SDS011;34745;52.276;10.528;2022-09-29T06:17:46;22.50;;;13.80;;
48935;SDS011;34745;52.276;10.528;2022-09-29T06:20:13;19.03;;;14.83;;
48935;SDS011;34745;52.276;10.528;2022-09-29T06:22:40;22.83;;;14.93;;
48935;SDS011;34745;52.276;10.528;2022-09-29T06:25:07;20.90;;;15.83;;
48935;SDS011;34745;52.276;10.528;2022-09-29T06:27:34;25.67;;;16.70;;
48935;SDS011;34745;52.276;10.528;2022-09-29T06:30:02;22.10;;;16.13;;
48935;SDS011;34745;52.276;10.528;2022-09-29T06:32:31;27.00;;;16.77;;
48935;SDS011;34745;52.276;10.528;2022-09-29T06:34:59;26.73;;;16.73;;
48935;SDS011;34745;52.276;10.528;2022-09-29T06:37:45;23.70;;;16.63;;
48935;SDS011;34745;52.276;10.528;2022-09-29T06:40:12;25.17;;;16.83;;
48935;SDS011;34745;52.276;10.528;2022-09-29T06:42:39;27.10;;;17.23;;
48935;SDS011;34745;52.276;10.528;2022-09-29T06:45:07;27.07;;;17.33;;
48935;SDS011;34745;52.276;10.528;2022-09-29T06:47:37;24.37;;;17.63;;
48935;SDS011;34745;52.276;10.528;2022-09-29T06:50:05;25.27;;;18.10;;
48935;SDS011;34745;52.276;10.528;2022-09-29T06:52:32;28.00;;;16.77;;
48935;SDS011;34745;52.276;10.528;2022-09-29T06:54:59;25.20;;;17.87;;
48935;SDS011;34745;52.276;10.528;2022-09-29T06:57:26;26.27;;;18.03;;
48935;SDS011;34745;52.276;10.528;2022-09-29T06:59:53;26.83;;;18.13;;
48935;SDS011;34745;52.276;10.528;2022-09-29T07:02:21;32.07;;;18.43;;
48935;SDS011;34745;52.276;10.528;2022-09-29T07:04:49;26.77;;;18.37;;
48935;SDS011;34745;52.276;10.528;2022-09-29T07:07:16;25.53;;;17.97;;
48935;SDS011;34745;52.276;10.528;2022-09-29T07:09:43;24.73;;;18.63;;
48935;SDS011;34745;52.276;10.528;2022-09-29T07:12:10;28.13;;;19.30;;
48935;SDS011;34745;52.276;10.528;2022-09-29T07:14:37;27.20;;;18.10;;
48935;SDS011;34745;52.276;10.528;2022-09-29T07:17:04;32.27;;;19.70;;
48935;SDS011;34745;52.276;10.528;2022-09-29T07:19:31;28.73;;;19.27;;
48935;SDS011;34745;52.276;10.528;2022-09-29T07:22:00;27.63;;;20.10;;
48935;SDS011;34745;52.276;10.528;2022-09-29T07:24:26;25.87;;;20.03;;
48935;SDS011;34745;52.276;10.528;2022-09-29T07:26:53;29.83;;;19.90;;
48935;SDS011;34745;52.276;10.528;2022-09-29T07:29:20;27.67;;;20.27;;
48935;SDS011;34745;52.276;10.528;2022-09-29T07:31:48;31.27;;;20.17;;
48935;SDS011;34745;52.276;10.528;2022-09-29T07:34:19;31.77;;;20.30;;
48935;SDS011;34745;52.276;10.528;2022-09-29T07:36:46;31.67;;;20.43;;
48935;SDS011;34745;52.276;10.528;2022-09-29T07:39:15;28.83;;;20.53;;
48935;SDS011;34745;52.276;10.528;2022-09-29T07:41:42;29.43;;;22.00;;
48935;SDS011;34745;52.276;10.528;2022-09-29T07:44:09;29.27;;;22.70;;
48935;SDS011;34745;52.276;10.528;2022-09-29T07:46:36;28.23;;;21.83;;
48935;SDS011;34745;52.276;10.528;2022-09-29T07:49:03;29.33;;;20.73;;
48935;SDS011;34745;52.276;10.528;2022-09-29T07:51:30;30.93;;;21.70;;
48935;SDS011;34745;52.276;10.528;2022-09-29T07:54:00;30.50;;;22.00;;
48935;SDS011;34745;52.276;10.528;2022-09-29T07:56:30;29.80;;;22.13;;
48935;SDS011;34745;52.276;10.528;2022-09-29T07:58:58;29.33;;;22.23;;
48935;SDS011;34745;52.276;10.528;2022-09-29T08:01:27;31.00;;;22.20;;
48935;SDS011;34745;52.276;10.528;2022-09-29T08:03:55;30.20;;;22.50;;
48935;SDS011;34745;52.276;10.528;2022-09-29T08:06:23;29.70;;;22.00;;
48935;SDS011;34745;52.276;10.528;2022-09-29T08:08:51;28.40;;;20.87;;
48935;SDS011;34745;52.276;10.528;2022-09-29T08:11:32;25.40;;;20.27;;
48935;SDS011;34745;52.276;10.528;2022-09-29T08:14:02;26.40;;;20.37;;
48935;SDS011;34745;52.276;10.528;2022-09-29T08:16:29;24.40;;;19.80;;
48935;SDS011;34745;52.276;10.528;2022-09-29T08:18:57;28.53;;;19.37;;
48935;SDS011;34745;52.276;10.528;2022-09-29T08:21:24;25.07;;;19.40;;
48935;SDS011;34745;52.276;10.528;2022-09-29T08:23:51;26.67;;;19.03;;
48935;SDS011;34745;52.276;10.528;2022-09-29T08:26:19;25.90;;;19.00;;
48935;SDS011;34745;52.276;10.528;2022-09-29T08:29:07;27.37;;;19.33;;
48935;SDS011;34745;52.276;10.528;2022-09-29T08:31:41;28.27;;;19.17;;
48935;SDS011;34745;52.276;10.528;2022-09-29T08:34:09;22.87;;;17.37;;
48935;SDS011;34745;52.276;10.528;2022-09-29T08:36:36;20.37;;;17.00;;
48935;SDS011;34745;52.276;10.528;2022-09-29T08:39:03;23.37;;;17.33;;
48935;SDS011;34745;52.276;10.528;2022-09-29T08:41:33;23.40;;;17.27;;
48935;SDS011;34745;52.276;10.528;2022-09-29T08:44:11;20.37;;;16.77;;
48935;SDS011;34745;52.276;10.528;2022-09-29T08:47:03;21.30;;;17.37;;
48935;SDS011;34745;52.276;10.528;2022-09-29T08:49:39;21.23;;;17.57;;
48935;SDS011;34745;52.276;10.528;2022-09-29T08:52:09;21.63;;;17.10;;
48935;SDS011;34745;52.276;10.528;2022-09-29T08:54:43;20.10;;;16.13;;
48935;SDS011;34745;52.276;10.528;2022-09-29T08:57:16;18.73;;;15.33;;
48935;SDS011;34745;52.276;10.528;2022-09-29T08:59:48;20.27;;;14.03;;
48935;SDS011;34745;52.276;10.528;2022-09-29T09:02:24;18.33;;;15.90;;
48935;SDS011;34745;52.276;10.528;2022-09-29T09:05:23;18.97;;;15.80;;
48935;SDS011;34745;52.276;10.528;2022-09-29T09:08:00;18.97;;;16.03;;
48935;SDS011;34745;52.276;10.528;2022-09-29T09:10:34;20.93;;;14.83;;
48935;SDS011;34745;52.276;10.528;2022-09-29T09:13:29;18.03;;;13.77;;
48935;SDS011;34745;52.276;10.528;2022-09-29T09:16:18;18.87;;;13.40;;
48935;SDS011;34745;52.276;10.528;2022-09-29T09:19:02;16.40;;;13.83;;
48935;SDS011;34745;52.276;10.528;2022-09-29T09:21:45;17.60;;;13.27;;
48935;SDS011;34745;52.276;10.528;2022-09-29T09:24:20;16.57;;;13.17;;
48935;SDS011;34745;52.276;10.528;2022-09-29T09:26:55;17.13;;;12.50;;
48935;SDS011;34745;52.276;10.528;2022-09-29T09:29:26;19.87;;;12.10;;
48935;SDS011;34745;52.276;10.528;2022-09-29T09:32:05;14.90;;;12.50;;
48935;SDS011;34745;52.276;10.528;2022-09-29T09:34:36;15.83;;;12.90;;
48935;SDS011;34745;52.276;10.528;2022-09-29T09:37:11;16.97;;;12.87;;
48935;SDS011;34745;52.276;10.528;2022-09-29T09:39:43;20.20;;;13.73;;
48935;SDS011;34745;52.276;10.528;2022-09-29T09:42:14;16.27;;;13.20;;
48935;SDS011;34745;52.276;10.528;2022-09-29T09:44:45;16.20;;;13.13;;
48935;SDS011;34745;52.276;10.528;2022-09-29T09:47:21;17.47;;;12.83;;
48935;SDS011;34745;52.276;10.528;2022-09-29T09:49:51;13.50;;;11.77;;
48935;SDS011;34745;52.276;10.528;2022-09-29T09:52:23;16.77;;;11.10;;
48935;SDS011;34745;52.276;10.528;2022-09-29T09:54:55;14.57;;;10.70;;
48935;SDS011;34745;52.276;10.528;2022-09-29T09:57:32;11.93;;;10.20;;
48935;SDS011;34745;52.276;10.528;2022-09-29T10:00:10;10.70;;;9.37;;
48935;SDS011;34745;52.276;10.528;2022-09-29T10:02:43;11.73;;;8.00;;
48935;SDS011;34745;52.276;10.528;2022-09-29T10:05:13;11.43;;;7.97;;
48935;SDS011;34745;52.276;10.528;2022-09-29T10:07:42;12.67;;;8.43;;
48935;SDS011;34745;52.276;10.528;2022-09-29T10:10:14;9.87;;;8.00;;
48935;SDS011;34745;52.276;10.528;2022-09-29T10:12:43;9.80;;;7.60;;
48935;SDS011;34745;52.276;10.528;2022-09-29T10:15:13;8.77;;;6.37;;
48935;SDS011;34745;52.276;10.528;2022-09-29T10:17:46;8.87;;;7.20;;
48935;SDS011;34745;52.276;10.528;2022-09-29T10:20:27;6.93;;;6.23;;
48935;SDS011;34745;52.276;10.528;2022-09-29T10:23:12;7.73;;;6.07;;
48935;SDS011;34745;52.276;10.528;2022-09-29T10:25:53;11.33;;;6.40;;
48935;SDS011;34745;52.276;10.528;2022-09-29T10:28:23;6.53;;;5.93;;
48935;SDS011;34745;52.276;10.528;2022-09-29T10:30:53;6.43;;;5.73;;
48935;SDS011;34745;52.276;10.528;2022-09-29T10:33:22;7.87;;;5.57;;
48935;SDS011;34745;52.276;10.528;2022-09-29T10:36:02;11.03;;;6.07;;
48935;SDS011;34745;52.276;10.528;2022-09-29T10:38:33;6.20;;;5.60;;
48935;SDS011;34745;52.276;10.528;2022-09-29T10:41:01;11.30;;;6.30;;
48935;SDS011;34745;52.276;10.528;2022-09-29T10:43:31;6.73;;;5.53;;
48935;SDS011;34745;52.276;10.528;2022-09-29T10:46:02;6.67;;;5.97;;
48935;SDS011;34745;52.276;10.528;2022-09-29T10:48:32;7.67;;;6.63;;
48935;SDS011;34745;52.276;10.528;2022-09-29T10:50:59;9.30;;;6.63;;
48935;SDS011;34745;52.276;10.528;2022-09-29T10:53:31;8.43;;;6.80;;
48935;SDS011;34745;52.276;10.528;2022-09-29T10:56:01;9.93;;;6.60;;
48935;SDS011;34745;52.276;10.528;2022-09-29T10:58:35;6.97;;;6.27;;
48935;SDS011;34745;52.276;10.528;2022-09-29T11:01:25;7.03;;;6.30;;
48935;SDS011;34745;52.276;10.528;2022-09-29T11:03:56;8.17;;;6.90;;
48935;SDS011;34745;52.276;10.528;2022-09-29T11:06:29;8.33;;;6.30;;
48935;SDS011;34745;52.276;10.528;2022-09-29T11:08:59;8.00;;;6.70;;
48935;SDS011;34745;52.276;10.528;2022-09-29T11:11:28;8.20;;;7.00;;
48935;SDS011;34745;52.276;10.528;2022-09-29T11:13:57;7.60;;;6.33;;
48935;SDS011;34745;52.276;10.528;2022-09-29T11:16:31;6.43;;;5.37;;
48935;SDS011;34745;52.276;10.528;2022-09-29T11:19:03;6.03;;;5.50;;
48935;SDS011;34745;52.276;10.528;2022-09-29T11:21:54;6.60;;;5.87;;
48935;SDS011;34745;52.276;10.528;2022-09-29T11:27:57;6.40;;;5.53;;
48935;SDS011;34745;52.276;10.528;2022-09-29T11:30:37;7.43;;;5.27;;
48935;SDS011;34745;52.276;10.528;2022-09-29T11:33:17;5.93;;;5.27;;
48935;SDS011;34745;52.276;10.528;2022-09-29T11:35:52;6.07;;;5.47;;
48935;SDS011;34745;52.276;10.528;2022-09-29T11:38:27;6.50;;;5.90;;
48935;SDS011;34745;52.276;10.528;2022-09-29T11:41:07;5.37;;;4.87;;
48935;SDS011;34745;52.276;10.528;2022-09-29T11:43:52;6.63;;;6.00;;
48935;SDS011;34745;52.276;10.528;2022-09-29T11:46:28;6.93;;;5.90;;
48935;SDS011;34745;52.276;10.528;2022-09-29T11:49:07;6.97;;;5.80;;
48935;SDS011;34745;52.276;10.528;2022-09-29T11:54:52;7.60;;;5.10;;
48935;SDS011;34745;52.276;10.528;2022-09-29T11:57:32;5.23;;;4.33;;
48935;SDS011;34745;52.276;10.528;2022-09-29T12:00:14;4.73;;;4.33;;
48935;SDS011;34745;52.276;10.528;2022-09-29T12:02:58;5.30;;;4.37;;
48935;SDS011;34745;52.276;10.528;2022-09-29T12:05:55;3.97;;;3.57;;
48935;SDS011;34745;52.276;10.528;2022-09-29T12:08:35;4.17;;;3.00;;
48935;SDS011;34745;52.276;10.528;2022-09-29T12:11:15;4.40;;;2.40;;
48935;SDS011;34745;52.276;10.528;2022-09-29T12:14:11;5.60;;;3.83;;
48935;SDS011;34745;52.276;10.528;2022-09-29T12:16:43;4.10;;;3.70;;
48935;SDS011;34745;52.276;10.528;2022-09-29T12:19:18;4.60;;;4.00;;
48935;SDS011;34745;52.276;10.528;2022-09-29T12:21:50;3.53;;;3.13;;
48935;SDS011;34745;52.276;10.528;2022-09-29T12:24:21;3.63;;;3.33;;
48935;SDS011;34745;52.276;10.528;2022-09-29T12:26:58;3.40;;;3.10;;
48935;SDS011;34745;52.276;10.528;2022-09-29T12:29:30;7.77;;;3.77;;
48935;SDS011;34745;52.276;10.528;2022-09-29T12:32:02;6.50;;;3.50;;
48935;SDS011;34745;52.276;10.528;2022-09-29T12:34:43;3.60;;;3.27;;
48935;SDS011;34745;52.276;10.528;2022-09-29T12:37:15;2.67;;;2.50;;
48935;SDS011;34745;52.276;10.528;2022-09-29T12:39:50;4.93;;;2.23;;
48935;SDS011;34745;52.276;10.528;2022-09-29T12:42:30;2.70;;;2.50;;
48935;SDS011;34745;52.276;10.528;2022-09-29T12:45:05;2.92;;;2.65;;
48935;SDS011;34745;52.276;10.528;2022-09-29T12:47:45;2.95;;;2.60;;
48935;SDS011;34745;52.276;10.528;2022-09-29T12:50:17;7.70;;;4.68;;
48935;SDS011;34745;52.276;10.528;2022-09-29T12:52:50;3.92;;;3.30;;
48935;SDS011;34745;52.276;10.528;2022-09-29T12:55:25;3.10;;;2.50;;
48935;SDS011;34745;52.276;10.528;2022-09-29T12:57:57;3.78;;;3.40;;
48935;SDS011;34745;52.276;10.528;2022-09-29T13:00:30;3.70;;;3.40;;
48935;SDS011;34745;52.276;10.528;2022-09-29T13:03:13;3.33;;;3.03;;
48935;SDS011;34745;52.276;10.528;2022-09-29T13:06:08;6.30;;;3.63;;
48935;SDS011;34745;52.276;10.528;2022-09-29T13:09:08;5.47;;;2.78;;
48935;SDS011;34745;52.276;10.528;2022-09-29T13:15:03;3.08;;;2.85;;
48935;SDS011;34745;52.276;10.528;2022-09-29T13:17:49;3.20;;;2.72;;
48935;SDS011;34745;52.276;10.528;2022-09-29T13:20:40;3.55;;;2.58;;
48935;SDS011;34745;52.276;10.528;2022-09-29T13:26:13;4.30;;;3.60;;
48935;SDS011;34745;52.276;10.528;2022-09-29T13:28:53;3.77;;;3.37;;
48935;SDS011;34745;52.276;10.528;2022-09-29T13:31:26;3.63;;;3.33;;
48935;SDS011;34745;52.276;10.528;2022-09-29T13:33:59;4.23;;;3.20;;
48935;SDS011;34745;52.276;10.528;2022-09-29T13:36:28;4.87;;;3.43;;
48935;SDS011;34745;52.276;10.528;2022-09-29T13:39:01;4.20;;;3.50;;
48935;SDS011;34745;52.276;10.528;2022-09-29T13:41:33;3.80;;;3.50;;
48935;SDS011;34745;52.276;10.528;2022-09-29T13:44:25;4.32;;;3.13;;
48935;SDS011;34745;52.276;10.528;2022-09-29T13:46:53;5.88;;;3.40;;
48935;SDS011;34745;52.276;10.528;2022-09-29T13:49:22;3.28;;;2.95;;
48935;SDS011;34745;52.276;10.528;2022-09-29T13:51:53;3.50;;;3.20;;
48935;SDS011;34745;52.276;10.528;2022-09-29T13:54:26;2.85;;;2.60;;
48935;SDS011;34745;52.276;10.528;2022-09-29T13:57:03;3.95;;;2.65;;
48935;SDS011;34745;52.276;10.528;2022-09-29T14:03:02;2.40;;;2.30;;
48935;SDS011;34745;52.276;10.528;2022-09-29T14:05:36;2.40;;;2.20;;
48935;SDS011;34745;52.276;10.528;2022-09-29T14:08:13;2.85;;;2.55;;
48935;SDS011;34745;52.276;10.528;2022-09-29T14:10:46;2.67;;;2.47;;
48935;SDS011;34745;52.276;10.528;2022-09-29T14:13:18;3.00;;;2.78;;
48935;SDS011;34745;52.276;10.528;2022-09-29T14:15:53;4.03;;;2.78;;
48935;SDS011;34745;52.276;10.528;2022-09-29T14:18:31;3.45;;;3.15;;
48935;SDS011;34745;52.276;10.528;2022-09-29T14:21:02;4.20;;;2.78;;
48935;SDS011;34745;52.276;10.528;2022-09-29T14:23:46;4.25;;;2.67;;
48935;SDS011;34745;52.276;10.528;2022-09-29T14:29:15;2.45;;;2.25;;
48935;SDS011;34745;52.276;10.528;2022-09-29T14:31:47;2.47;;;2.25;;
48935;SDS011;34745;52.276;10.528;2022-09-29T14:34:18;2.40;;;2.25;;
48935;SDS011;34745;52.276;10.528;2022-09-29T14:36:48;2.67;;;2.45;;
48935;SDS011;34745;52.276;10.528;2022-09-29T14:39:19;4.10;;;2.70;;
48935;SDS011;34745;52.276;10.528;2022-09-29T14:41:52;3.50;;;2.80;;
48935;SDS011;34745;52.276;10.528;2022-09-29T14:44:20;2.75;;;2.40;;
48935;SDS011;34745;52.276;10.528;2022-09-29T14:47:03;3.50;;;2.38;;
48935;SDS011;34745;52.276;10.528;2022-09-29T14:50:16;2.45;;;2.25;;
48935;SDS011;34745;52.276;10.528;2022-09-29T14:53:20;3.22;;;2.30;;
48935;SDS011;34745;52.276;10.528;2022-09-29T14:55:58;6.50;;;2.70;;
48935;SDS011;34745;52.276;10.528;2022-09-29T14:58:42;3.53;;;3.22;;
48935;SDS011;34745;52.276;10.528;2022-09-29T15:01:24;9.88;;;3.00;;
48935;SDS011;34745;52.276;10.528;2022-09-29T15:03:55;5.30;;;3.20;;
48935;SDS011;34745;52.276;10.528;2022-09-29T15:06:29;2.92;;;2.42;;
48935;SDS011;34745;52.276;10.528;2022-09-29T15:08:58;3.35;;;3.05;;
48935;SDS011;34745;52.276;10.528;2022-09-29T15:11:27;3.50;;;3.10;;
48935;SDS011;34745;52.276;10.528;2022-09-29T15:13:57;3.70;;;3.25;;
48935;SDS011;34745;52.276;10.528;2022-09-29T15:16:26;4.38;;;3.33;;